createdAt,value
2023-05-06T00:00:02.321Z,1008.6380946964749
2023-05-06T00:15:01.929Z,1008.7366572410232
2023-05-06T00:30:01.586Z,1008.7735155742785
2023-05-06T00:45:02.214Z,1008.7333503801628
2023-05-06T01:00:01.780Z,1008.8163161190364
2023-05-06T01:15:02.413Z,1008.735813258538
2023-05-06T01:30:02.074Z,1008.7315445003586
2023-05-06T01:45:01.762Z,1008.6274332152177
2023-05-06T02:00:02.415Z,1008.7170423386119
2023-05-06T02:15:02.078Z,1008.7122327489717
2023-05-06T02:30:01.758Z,1008.7418147901475
2023-05-06T02:45:02.382Z,1008.7664485955438
2023-05-06T03:00:01.958Z,1008.7501696859119
2023-05-06T03:15:01.593Z,1008.8085563384051
2023-05-06T03:30:02.229Z,1008.9419539462724
2023-05-06T03:45:01.833Z,1008.7536243289076
2023-05-06T04:00:02.548Z,1008.83438521192
2023-05-06T04:15:02.228Z,1008.7386810263705
2023-05-06T04:30:02.418Z,1008.8106319016529
2023-05-06T04:45:02.020Z,1008.9137861612404
2023-05-06T05:00:01.600Z,1009.1652222264087
2023-05-06T05:15:02.253Z,1009.3389946034919
2023-05-06T05:30:01.932Z,1009.5043204391268
2023-05-06T05:45:01.516Z,1009.33522197261
2023-05-06T06:00:02.166Z,1009.387537750836
2023-05-06T06:15:01.884Z,1009.4217761047503
2023-05-06T06:30:01.576Z,1009.448836580717
2023-05-06T06:45:02.222Z,1009.4659865734506
2023-05-06T07:00:01.865Z,1009.605609130142
2023-05-06T07:15:02.487Z,1009.5598601394792
2023-05-06T07:30:02.107Z,1009.6417599659912
2023-05-06T07:45:01.733Z,1009.8366883631982
2023-05-06T08:00:02.354Z,1009.8444160229142
2023-05-06T08:15:02.025Z,1009.9456403219617
2023-05-06T08:30:01.716Z,1010.028805150555
2023-05-06T08:45:02.316Z,1009.961305702494
2023-05-06T09:00:02.014Z,1010.0271540810488
2023-05-06T09:15:01.710Z,1010.023729740946
2023-05-06T09:30:02.517Z,1009.9298799083591
2023-05-06T09:45:02.482Z,1009.9336597053239
2023-05-06T10:00:02.182Z,1009.7859765681292
2023-05-06T10:15:01.832Z,1009.8218080009282
2023-05-06T10:30:02.458Z,1009.6829326880186
2023-05-06T10:45:02.133Z,1009.5538528047001
2023-05-06T11:00:01.789Z,1009.5228772358008
2023-05-06T11:15:02.401Z,1009.4082806093652
2023-05-06T11:30:02.050Z,1009.3153528272929
2023-05-06T11:45:01.619Z,1009.3634764657857
2023-05-06T12:00:02.191Z,1009.3324826994743
2023-05-06T12:15:01.777Z,1009.3559215499337
2023-05-06T12:30:02.428Z,1009.3900219209074
2023-05-06T12:45:02.066Z,1009.2971420868654
2023-05-06T13:00:01.707Z,1009.2118973649017
2023-05-06T13:15:02.287Z,1009.141719115408
2023-05-06T13:30:01.888Z,1008.9637796517808
2023-05-06T13:45:02.520Z,1008.7757509300002
2023-05-06T14:00:02.239Z,1008.7481379503089
2023-05-06T14:15:02.036Z,1008.7239911046
2023-05-06T14:30:01.660Z,1008.6508367912552
2023-05-06T14:45:02.291Z,1008.5093338014763
2023-05-06T15:00:01.971Z,1008.4058521109686
2023-05-06T15:15:01.616Z,1008.4431546719816
2023-05-06T15:30:02.219Z,1008.4288006658877
2023-05-06T15:45:01.812Z,1008.3779538102286
2023-05-06T16:00:02.458Z,1008.5187968493284
2023-05-06T16:15:02.111Z,1008.4759782026144
2023-05-06T16:30:01.825Z,1008.4954636272539
2023-05-06T16:45:02.454Z,1008.3414320761174
2023-05-06T17:00:02.124Z,1008.4061706762639
2023-05-06T17:15:01.743Z,1008.4158287137116
2023-05-06T17:30:02.358Z,1008.4655805228089
2023-05-06T17:45:01.952Z,1008.4919061390798
2023-05-06T18:00:01.595Z,1008.71335923749
2023-05-06T18:15:02.187Z,1008.7403414007825
2023-05-06T18:30:01.901Z,1008.849887476308
2023-05-06T18:45:02.548Z,1008.9530277649453
2023-05-06T19:00:02.168Z,1009.0046183035674
2023-05-06T19:15:01.910Z,1009.1487207992864
2023-05-06T19:30:01.550Z,1009.0905757743623
2023-05-06T19:45:02.135Z,1009.1841032910482
2023-05-06T20:00:01.752Z,1009.1326477167054
2023-05-06T20:15:02.375Z,1009.2225456641856
2023-05-06T20:30:02.035Z,1009.1648460101044
2023-05-06T20:45:01.786Z,1009.4237449373142
2023-05-06T21:00:02.402Z,1009.5700779549543
2023-05-06T21:15:02.066Z,1009.5968223085849
2023-05-06T21:30:01.801Z,1009.5051580413121
2023-05-06T21:45:02.432Z,1009.5088773301874
2023-05-06T22:00:02.070Z,1009.5253802260685
2023-05-06T22:15:01.784Z,1009.4817177236822
2023-05-06T22:30:02.457Z,1009.5667801194083
2023-05-06T22:45:02.053Z,1009.5744865530257
2023-05-06T23:00:01.700Z,1009.5917507777268
2023-05-06T23:15:02.322Z,1009.5680621629165
2023-05-06T23:30:01.992Z,1009.4936078006302
2023-05-06T23:45:01.604Z,1009.406124981118
